sensor_id;sensor_type;location;lat;lon;timestamp;P1;durP1;ratioP1;P2;durP2;ratioP2
54384;SDS011;40284;52.878;5.998;2023-05-10T00:01:08;14.63;;;12.18;;
54384;SDS011;40284;52.878;5.998;2023-05-10T00:03:35;16.75;;;11.88;;
54384;SDS011;40284;52.878;5.998;2023-05-10T00:06:01;17.08;;;13.07;;
54384;SDS011;40284;52.878;5.998;2023-05-10T00:08:27;15.95;;;13.07;;
54384;SDS011;40284;52.878;5.998;2023-05-10T00:10:53;17.15;;;12.75;;
54384;SDS011;40284;52.878;5.998;2023-05-10T00:13:19;17.75;;;12.75;;
54384;SDS011;40284;52.878;5.998;2023-05-10T00:15:45;18.38;;;12.88;;
54384;SDS011;40284;52.878;5.998;2023-05-10T00:18:11;13.45;;;10.88;;
54384;SDS011;40284;52.878;5.998;2023-05-10T00:20:37;12.88;;;10.60;;
54384;SDS011;40284;52.878;5.998;2023-05-10T00:23:03;14.20;;;10.23;;
54384;SDS011;40284;52.878;5.998;2023-05-10T00:25:30;13.70;;;11.10;;
54384;SDS011;40284;52.878;5.998;2023-05-10T00:27:56;12.18;;;10.20;;
54384;SDS011;40284;52.878;5.998;2023-05-10T00:30:22;13.07;;;10.90;;
54384;SDS011;40284;52.878;5.998;2023-05-10T00:32:48;13.30;;;10.50;;
54384;SDS011;40284;52.878;5.998;2023-05-10T00:35:15;13.85;;;10.73;;
54384;SDS011;40284;52.878;5.998;2023-05-10T00:37:41;13.30;;;9.85;;
54384;SDS011;40284;52.878;5.998;2023-05-10T00:40:07;12.60;;;9.93;;
54384;SDS011;40284;52.878;5.998;2023-05-10T00:42:33;12.77;;;10.27;;
54384;SDS011;40284;52.878;5.998;2023-05-10T00:44:59;13.15;;;9.77;;
54384;SDS011;40284;52.878;5.998;2023-05-10T00:47:26;13.10;;;9.68;;
54384;SDS011;40284;52.878;5.998;2023-05-10T00:49:53;12.45;;;10.10;;
54384;SDS011;40284;52.878;5.998;2023-05-10T00:52:19;12.60;;;9.63;;
54384;SDS011;40284;52.878;5.998;2023-05-10T00:54:45;13.55;;;10.30;;
54384;SDS011;40284;52.878;5.998;2023-05-10T00:57:12;12.80;;;10.30;;
54384;SDS011;40284;52.878;5.998;2023-05-10T00:59:38;11.32;;;9.45;;
54384;SDS011;40284;52.878;5.998;2023-05-10T01:02:04;11.90;;;9.73;;
54384;SDS011;40284;52.878;5.998;2023-05-10T01:04:31;11.55;;;9.13;;
54384;SDS011;40284;52.878;5.998;2023-05-10T01:06:57;12.30;;;10.18;;
54384;SDS011;40284;52.878;5.998;2023-05-10T01:09:23;11.90;;;9.18;;
54384;SDS011;40284;52.878;5.998;2023-05-10T01:11:51;12.10;;;9.88;;
54384;SDS011;40284;52.878;5.998;2023-05-10T01:14:18;11.27;;;9.50;;
54384;SDS011;40284;52.878;5.998;2023-05-10T01:16:44;11.73;;;9.27;;
54384;SDS011;40284;52.878;5.998;2023-05-10T01:19:22;11.48;;;8.95;;
54384;SDS011;40284;52.878;5.998;2023-05-10T01:21:52;11.18;;;8.52;;
54384;SDS011;40284;52.878;5.998;2023-05-10T01:32:46;9.25;;;8.25;;
54384;SDS011;40284;52.878;5.998;2023-05-10T01:37:52;11.55;;;7.47;;
54384;SDS011;40284;52.878;5.998;2023-05-10T01:40:23;9.35;;;7.68;;
54384;SDS011;40284;52.878;5.998;2023-05-10T01:42:53;8.23;;;7.40;;
54384;SDS011;40284;52.878;5.998;2023-05-10T01:45:39;8.70;;;7.65;;
54384;SDS011;40284;52.878;5.998;2023-05-10T01:48:09;10.00;;;7.78;;
54384;SDS011;40284;52.878;5.998;2023-05-10T01:50:38;8.48;;;7.57;;
54384;SDS011;40284;52.878;5.998;2023-05-10T01:53:08;10.23;;;8.93;;
54384;SDS011;40284;52.878;5.998;2023-05-10T01:55:39;8.88;;;7.97;;
54384;SDS011;40284;52.878;5.998;2023-05-10T01:58:11;9.52;;;8.15;;
54384;SDS011;40284;52.878;5.998;2023-05-10T02:00:44;8.82;;;7.93;;
54384;SDS011;40284;52.878;5.998;2023-05-10T02:03:12;9.70;;;8.70;;
54384;SDS011;40284;52.878;5.998;2023-05-10T02:05:39;10.15;;;9.13;;
54384;SDS011;40284;52.878;5.998;2023-05-10T02:08:07;9.45;;;8.45;;
54384;SDS011;40284;52.878;5.998;2023-05-10T02:10:34;10.02;;;9.02;;
54384;SDS011;40284;52.878;5.998;2023-05-10T02:13:00;10.35;;;8.85;;
54384;SDS011;40284;52.878;5.998;2023-05-10T02:15:27;11.70;;;9.27;;
54384;SDS011;40284;52.878;5.998;2023-05-10T02:17:55;9.95;;;9.02;;
54384;SDS011;40284;52.878;5.998;2023-05-10T02:20:22;10.35;;;9.35;;
54384;SDS011;40284;52.878;5.998;2023-05-10T02:22:49;10.38;;;9.27;;
54384;SDS011;40284;52.878;5.998;2023-05-10T02:25:17;11.38;;;9.85;;
54384;SDS011;40284;52.878;5.998;2023-05-10T02:27:43;9.95;;;8.95;;
54384;SDS011;40284;52.878;5.998;2023-05-10T02:30:10;12.60;;;9.77;;
54384;SDS011;40284;52.878;5.998;2023-05-10T02:32:37;12.77;;;9.90;;
54384;SDS011;40284;52.878;5.998;2023-05-10T02:35:04;11.02;;;9.75;;
54384;SDS011;40284;52.878;5.998;2023-05-10T02:37:30;10.43;;;9.43;;
54384;SDS011;40284;52.878;5.998;2023-05-10T02:39:57;11.45;;;9.60;;
54384;SDS011;40284;52.878;5.998;2023-05-10T02:42:25;9.93;;;8.95;;
54384;SDS011;40284;52.878;5.998;2023-05-10T02:45:01;9.98;;;8.98;;
54384;SDS011;40284;52.878;5.998;2023-05-10T02:47:28;9.55;;;8.63;;
54384;SDS011;40284;52.878;5.998;2023-05-10T02:49:55;10.35;;;9.15;;
54384;SDS011;40284;52.878;5.998;2023-05-10T02:52:23;9.63;;;8.38;;
54384;SDS011;40284;52.878;5.998;2023-05-10T02:54:51;9.10;;;8.20;;
54384;SDS011;40284;52.878;5.998;2023-05-10T02:57:20;10.35;;;8.10;;
54384;SDS011;40284;52.878;5.998;2023-05-10T02:59:48;10.35;;;8.52;;
54384;SDS011;40284;52.878;5.998;2023-05-10T03:02:14;10.60;;;9.02;;
54384;SDS011;40284;52.878;5.998;2023-05-10T03:04:40;9.63;;;8.63;;
54384;SDS011;40284;52.878;5.998;2023-05-10T03:07:07;10.10;;;8.50;;
54384;SDS011;40284;52.878;5.998;2023-05-10T03:09:33;10.25;;;9.10;;
54384;SDS011;40284;52.878;5.998;2023-05-10T03:12:49;10.48;;;9.45;;
54384;SDS011;40284;52.878;5.998;2023-05-10T03:18:09;8.43;;;7.50;;
54384;SDS011;40284;52.878;5.998;2023-05-10T03:20:10;8.38;;;7.32;;
54384;SDS011;40284;52.878;5.998;2023-05-10T03:22:37;9.82;;;7.97;;
54384;SDS011;40284;52.878;5.998;2023-05-10T03:25:05;8.00;;;6.95;;
54384;SDS011;40284;52.878;5.998;2023-05-10T03:27:32;8.25;;;7.20;;
54384;SDS011;40284;52.878;5.998;2023-05-10T03:29:58;7.90;;;6.70;;
54384;SDS011;40284;52.878;5.998;2023-05-10T03:32:25;10.35;;;7.78;;
54384;SDS011;40284;52.878;5.998;2023-05-10T03:34:52;8.27;;;7.40;;
54384;SDS011;40284;52.878;5.998;2023-05-10T03:37:18;9.23;;;7.63;;
54384;SDS011;40284;52.878;5.998;2023-05-10T03:39:44;9.98;;;7.68;;
54384;SDS011;40284;52.878;5.998;2023-05-10T03:42:10;9.95;;;8.32;;
54384;SDS011;40284;52.878;5.998;2023-05-10T03:44:37;9.93;;;8.93;;
54384;SDS011;40284;52.878;5.998;2023-05-10T03:47:03;11.18;;;8.70;;
54384;SDS011;40284;52.878;5.998;2023-05-10T03:49:29;9.57;;;8.40;;
54384;SDS011;40284;52.878;5.998;2023-05-10T03:51:55;10.13;;;9.02;;
54384;SDS011;40284;52.878;5.998;2023-05-10T03:54:21;8.95;;;7.72;;
54384;SDS011;40284;52.878;5.998;2023-05-10T03:56:48;10.43;;;7.75;;
54384;SDS011;40284;52.878;5.998;2023-05-10T03:59:14;10.30;;;8.52;;
54384;SDS011;40284;52.878;5.998;2023-05-10T04:01:40;9.07;;;8.15;;
54384;SDS011;40284;52.878;5.998;2023-05-10T04:04:06;11.43;;;9.25;;
54384;SDS011;40284;52.878;5.998;2023-05-10T04:06:32;11.73;;;9.27;;
54384;SDS011;40284;52.878;5.998;2023-05-10T04:08:58;13.43;;;9.93;;
54384;SDS011;40284;52.878;5.998;2023-05-10T04:11:28;11.30;;;9.38;;
54384;SDS011;40284;52.878;5.998;2023-05-10T04:13:54;14.00;;;10.18;;
54384;SDS011;40284;52.878;5.998;2023-05-10T04:16:21;13.80;;;9.43;;
54384;SDS011;40284;52.878;5.998;2023-05-10T04:18:47;12.70;;;10.60;;
54384;SDS011;40284;52.878;5.998;2023-05-10T04:21:13;11.05;;;9.07;;
54384;SDS011;40284;52.878;5.998;2023-05-10T04:23:39;12.60;;;9.35;;
54384;SDS011;40284;52.878;5.998;2023-05-10T04:26:06;10.85;;;8.20;;
54384;SDS011;40284;52.878;5.998;2023-05-10T04:28:32;11.32;;;9.13;;
54384;SDS011;40284;52.878;5.998;2023-05-10T04:31:07;13.50;;;10.65;;
54384;SDS011;40284;52.878;5.998;2023-05-10T04:33:33;14.95;;;10.05;;
54384;SDS011;40284;52.878;5.998;2023-05-10T04:36:00;10.85;;;9.07;;
54384;SDS011;40284;52.878;5.998;2023-05-10T04:38:26;10.77;;;8.95;;
54384;SDS011;40284;52.878;5.998;2023-05-10T04:40:53;10.60;;;8.05;;
54384;SDS011;40284;52.878;5.998;2023-05-10T04:43:19;10.82;;;8.25;;
54384;SDS011;40284;52.878;5.998;2023-05-10T04:45:45;12.27;;;9.23;;
54384;SDS011;40284;52.878;5.998;2023-05-10T04:48:11;10.55;;;8.70;;
54384;SDS011;40284;52.878;5.998;2023-05-10T04:50:38;10.07;;;8.38;;
54384;SDS011;40284;52.878;5.998;2023-05-10T04:53:05;11.23;;;8.45;;
54384;SDS011;40284;52.878;5.998;2023-05-10T04:55:31;10.38;;;8.77;;
54384;SDS011;40284;52.878;5.998;2023-05-10T04:57:57;12.50;;;9.02;;
54384;SDS011;40284;52.878;5.998;2023-05-10T05:00:24;9.88;;;8.85;;
54384;SDS011;40284;52.878;5.998;2023-05-10T05:02:50;12.75;;;8.95;;
54384;SDS011;40284;52.878;5.998;2023-05-10T05:05:16;10.65;;;9.48;;
54384;SDS011;40284;52.878;5.998;2023-05-10T05:07:42;11.63;;;9.73;;
54384;SDS011;40284;52.878;5.998;2023-05-10T05:10:08;11.57;;;9.77;;
54384;SDS011;40284;52.878;5.998;2023-05-10T05:12:34;12.85;;;10.85;;
54384;SDS011;40284;52.878;5.998;2023-05-10T05:15:01;13.73;;;9.60;;
54384;SDS011;40284;52.878;5.998;2023-05-10T05:17:27;14.55;;;11.48;;
54384;SDS011;40284;52.878;5.998;2023-05-10T05:19:53;15.25;;;10.65;;
54384;SDS011;40284;52.878;5.998;2023-05-10T05:22:20;13.80;;;12.20;;
54384;SDS011;40284;52.878;5.998;2023-05-10T05:24:52;17.38;;;11.38;;
54384;SDS011;40284;52.878;5.998;2023-05-10T05:27:18;13.55;;;10.52;;
54384;SDS011;40284;52.878;5.998;2023-05-10T05:29:46;12.95;;;10.80;;
54384;SDS011;40284;52.878;5.998;2023-05-10T05:32:12;14.45;;;11.25;;
54384;SDS011;40284;52.878;5.998;2023-05-10T05:34:38;15.95;;;12.25;;
54384;SDS011;40284;52.878;5.998;2023-05-10T05:37:04;17.48;;;12.70;;
54384;SDS011;40284;52.878;5.998;2023-05-10T05:39:30;18.48;;;13.48;;
54384;SDS011;40284;52.878;5.998;2023-05-10T05:41:56;15.20;;;11.73;;
54384;SDS011;40284;52.878;5.998;2023-05-10T05:44:23;15.40;;;12.43;;
54384;SDS011;40284;52.878;5.998;2023-05-10T05:46:49;16.88;;;12.85;;
54384;SDS011;40284;52.878;5.998;2023-05-10T05:49:15;13.85;;;11.77;;
54384;SDS011;40284;52.878;5.998;2023-05-10T05:51:41;15.77;;;11.43;;
54384;SDS011;40284;52.878;5.998;2023-05-10T05:54:08;18.10;;;11.98;;
54384;SDS011;40284;52.878;5.998;2023-05-10T05:56:34;15.27;;;11.73;;
54384;SDS011;40284;52.878;5.998;2023-05-10T05:59:00;20.67;;;12.57;;
54384;SDS011;40284;52.878;5.998;2023-05-10T06:01:26;14.48;;;11.05;;
54384;SDS011;40284;52.878;5.998;2023-05-10T06:03:52;14.95;;;10.63;;
54384;SDS011;40284;52.878;5.998;2023-05-10T06:06:18;15.45;;;10.82;;
54384;SDS011;40284;52.878;5.998;2023-05-10T06:08:44;13.80;;;10.45;;
54384;SDS011;40284;52.878;5.998;2023-05-10T06:11:10;20.15;;;11.52;;
54384;SDS011;40284;52.878;5.998;2023-05-10T06:13:36;13.18;;;9.60;;
54384;SDS011;40284;52.878;5.998;2023-05-10T06:16:02;17.58;;;11.18;;
54384;SDS011;40284;52.878;5.998;2023-05-10T06:18:28;19.60;;;10.90;;
54384;SDS011;40284;52.878;5.998;2023-05-10T06:20:55;14.80;;;10.20;;
54384;SDS011;40284;52.878;5.998;2023-05-10T06:23:21;15.90;;;10.02;;
54384;SDS011;40284;52.878;5.998;2023-05-10T06:25:47;16.75;;;11.25;;
54384;SDS011;40284;52.878;5.998;2023-05-10T06:28:13;18.88;;;10.10;;
54384;SDS011;40284;52.878;5.998;2023-05-10T06:30:39;15.07;;;9.10;;
54384;SDS011;40284;52.878;5.998;2023-05-10T06:33:05;15.63;;;9.57;;
54384;SDS011;40284;52.878;5.998;2023-05-10T06:35:31;14.80;;;9.10;;
54384;SDS011;40284;52.878;5.998;2023-05-10T06:37:58;15.43;;;9.25;;
54384;SDS011;40284;52.878;5.998;2023-05-10T06:40:24;15.93;;;9.50;;
54384;SDS011;40284;52.878;5.998;2023-05-10T06:42:51;15.85;;;9.77;;
54384;SDS011;40284;52.878;5.998;2023-05-10T06:45:17;18.48;;;10.73;;
54384;SDS011;40284;52.878;5.998;2023-05-10T06:47:43;16.65;;;10.73;;
54384;SDS011;40284;52.878;5.998;2023-05-10T06:50:09;17.50;;;11.40;;
54384;SDS011;40284;52.878;5.998;2023-05-10T06:52:38;17.67;;;11.57;;
54384;SDS011;40284;52.878;5.998;2023-05-10T06:55:04;17.75;;;11.65;;
54384;SDS011;40284;52.878;5.998;2023-05-10T06:57:31;18.08;;;12.02;;
54384;SDS011;40284;52.878;5.998;2023-05-10T07:00:00;16.90;;;11.80;;
54384;SDS011;40284;52.878;5.998;2023-05-10T07:02:26;19.20;;;12.13;;
54384;SDS011;40284;52.878;5.998;2023-05-10T07:04:52;18.67;;;13.13;;
54384;SDS011;40284;52.878;5.998;2023-05-10T07:07:19;19.13;;;12.45;;
54384;SDS011;40284;52.878;5.998;2023-05-10T07:09:45;15.60;;;11.85;;
54384;SDS011;40284;52.878;5.998;2023-05-10T07:12:11;17.33;;;12.30;;
54384;SDS011;40284;52.878;5.998;2023-05-10T07:14:37;24.27;;;14.63;;
54384;SDS011;40284;52.878;5.998;2023-05-10T07:17:03;21.65;;;13.57;;
54384;SDS011;40284;52.878;5.998;2023-05-10T07:19:29;17.88;;;12.45;;
54384;SDS011;40284;52.878;5.998;2023-05-10T07:21:57;20.83;;;13.10;;
54384;SDS011;40284;52.878;5.998;2023-05-10T07:24:23;18.23;;;13.45;;
54384;SDS011;40284;52.878;5.998;2023-05-10T07:26:50;18.65;;;13.05;;
54384;SDS011;40284;52.878;5.998;2023-05-10T07:29:16;18.42;;;13.45;;
54384;SDS011;40284;52.878;5.998;2023-05-10T07:31:42;20.58;;;13.73;;
54384;SDS011;40284;52.878;5.998;2023-05-10T07:34:08;16.92;;;12.75;;
54384;SDS011;40284;52.878;5.998;2023-05-10T07:36:35;20.33;;;13.52;;
54384;SDS011;40284;52.878;5.998;2023-05-10T07:39:01;18.50;;;13.70;;
54384;SDS011;40284;52.878;5.998;2023-05-10T07:41:27;22.63;;;15.20;;
54384;SDS011;40284;52.878;5.998;2023-05-10T07:43:53;20.90;;;15.60;;
54384;SDS011;40284;52.878;5.998;2023-05-10T07:46:19;23.92;;;16.65;;
54384;SDS011;40284;52.878;5.998;2023-05-10T07:48:45;26.08;;;17.95;;
54384;SDS011;40284;52.878;5.998;2023-05-10T07:51:11;27.05;;;17.48;;
54384;SDS011;40284;52.878;5.998;2023-05-10T07:53:37;28.20;;;17.92;;
54384;SDS011;40284;52.878;5.998;2023-05-10T07:58:48;24.30;;;16.92;;
54384;SDS011;40284;52.878;5.998;2023-05-10T08:01:15;26.35;;;17.63;;
54384;SDS011;40284;52.878;5.998;2023-05-10T08:03:41;27.35;;;17.85;;
54384;SDS011;40284;52.878;5.998;2023-05-10T08:06:07;23.55;;;16.75;;
54384;SDS011;40284;52.878;5.998;2023-05-10T08:08:33;21.08;;;14.93;;
54384;SDS011;40284;52.878;5.998;2023-05-10T08:10:59;19.92;;;16.23;;
54384;SDS011;40284;52.878;5.998;2023-05-10T08:13:25;22.70;;;16.08;;
54384;SDS011;40284;52.878;5.998;2023-05-10T08:15:51;19.40;;;12.63;;
54384;SDS011;40284;52.878;5.998;2023-05-10T08:18:18;14.63;;;10.32;;
54384;SDS011;40284;52.878;5.998;2023-05-10T08:20:44;11.38;;;7.72;;
54384;SDS011;40284;52.878;5.998;2023-05-10T08:23:12;7.05;;;5.90;;
54384;SDS011;40284;52.878;5.998;2023-05-10T08:25:38;6.45;;;5.32;;
54384;SDS011;40284;52.878;5.998;2023-05-10T08:28:04;7.32;;;4.07;;
54384;SDS011;40284;52.878;5.998;2023-05-10T08:30:30;3.70;;;3.30;;
54384;SDS011;40284;52.878;5.998;2023-05-10T08:32:57;4.53;;;3.00;;
54384;SDS011;40284;52.878;5.998;2023-05-10T08:35:23;4.22;;;3.05;;
54384;SDS011;40284;52.878;5.998;2023-05-10T08:37:50;5.18;;;3.90;;
54384;SDS011;40284;52.878;5.998;2023-05-10T08:40:16;4.35;;;3.47;;
54384;SDS011;40284;52.878;5.998;2023-05-10T08:42:48;5.30;;;4.15;;
54384;SDS011;40284;52.878;5.998;2023-05-10T08:45:16;5.78;;;4.88;;
54384;SDS011;40284;52.878;5.998;2023-05-10T08:47:44;5.50;;;4.75;;
54384;SDS011;40284;52.878;5.998;2023-05-10T08:50:10;7.68;;;5.25;;
54384;SDS011;40284;52.878;5.998;2023-05-10T08:52:37;5.15;;;4.55;;
54384;SDS011;40284;52.878;5.998;2023-05-10T08:55:05;6.57;;;5.75;;
54384;SDS011;40284;52.878;5.998;2023-05-10T08:57:31;6.40;;;5.80;;
54384;SDS011;40284;52.878;5.998;2023-05-10T08:59:57;8.40;;;7.25;;
54384;SDS011;40284;52.878;5.998;2023-05-10T09:02:24;9.68;;;8.30;;
54384;SDS011;40284;52.878;5.998;2023-05-10T09:04:50;10.60;;;9.02;;
54384;SDS011;40284;52.878;5.998;2023-05-10T09:07:16;11.30;;;10.07;;
54384;SDS011;40284;52.878;5.998;2023-05-10T09:09:43;10.32;;;9.13;;
54384;SDS011;40284;52.878;5.998;2023-05-10T09:12:09;12.50;;;9.48;;
54384;SDS011;40284;52.878;5.998;2023-05-10T09:14:36;12.10;;;9.30;;
54384;SDS011;40284;52.878;5.998;2023-05-10T09:17:03;12.85;;;10.07;;
54384;SDS011;40284;52.878;5.998;2023-05-10T09:19:30;13.40;;;9.88;;
54384;SDS011;40284;52.878;5.998;2023-05-10T09:21:56;11.57;;;9.40;;
54384;SDS011;40284;52.878;5.998;2023-05-10T09:24:25;12.25;;;9.23;;
54384;SDS011;40284;52.878;5.998;2023-05-10T09:26:52;12.82;;;9.77;;
54384;SDS011;40284;52.878;5.998;2023-05-10T09:29:18;11.35;;;9.65;;
54384;SDS011;40284;52.878;5.998;2023-05-10T09:31:47;10.55;;;8.73;;
54384;SDS011;40284;52.878;5.998;2023-05-10T09:34:19;11.73;;;7.93;;
54384;SDS011;40284;52.878;5.998;2023-05-10T09:39:38;9.73;;;7.22;;
54384;SDS011;40284;52.878;5.998;2023-05-10T09:42:07;8.68;;;7.55;;
54384;SDS011;40284;52.878;5.998;2023-05-10T09:44:33;6.60;;;5.40;;
54384;SDS011;40284;52.878;5.998;2023-05-10T09:47:00;6.70;;;5.30;;
54384;SDS011;40284;52.878;5.998;2023-05-10T09:49:26;7.50;;;6.22;;
54384;SDS011;40284;52.878;5.998;2023-05-10T09:54:27;6.25;;;5.18;;
54384;SDS011;40284;52.878;5.998;2023-05-10T09:56:54;7.35;;;5.05;;
54384;SDS011;40284;52.878;5.998;2023-05-10T09:59:20;7.18;;;4.50;;
54384;SDS011;40284;52.878;5.998;2023-05-10T10:01:49;6.30;;;4.55;;
54384;SDS011;40284;52.878;5.998;2023-05-10T10:04:16;7.30;;;4.72;;
54384;SDS011;40284;52.878;5.998;2023-05-10T10:06:42;5.18;;;3.90;;
54384;SDS011;40284;52.878;5.998;2023-05-10T10:09:08;5.78;;;4.35;;
54384;SDS011;40284;52.878;5.998;2023-05-10T10:11:35;5.13;;;4.63;;
54384;SDS011;40284;52.878;5.998;2023-05-10T10:14:01;5.68;;;4.13;;
54384;SDS011;40284;52.878;5.998;2023-05-10T10:16:30;5.32;;;4.78;;
54384;SDS011;40284;52.878;5.998;2023-05-10T10:18:57;5.82;;;4.50;;
54384;SDS011;40284;52.878;5.998;2023-05-10T10:21:23;7.43;;;4.47;;
54384;SDS011;40284;52.878;5.998;2023-05-10T10:23:50;6.55;;;4.43;;
54384;SDS011;40284;52.878;5.998;2023-05-10T10:26:18;6.45;;;4.40;;
54384;SDS011;40284;52.878;5.998;2023-05-10T10:31:33;6.45;;;5.20;;
54384;SDS011;40284;52.878;5.998;2023-05-10T10:34:10;6.60;;;5.40;;
54384;SDS011;40284;52.878;5.998;2023-05-10T10:36:45;8.45;;;6.22;;
54384;SDS011;40284;52.878;5.998;2023-05-10T10:39:14;8.05;;;6.35;;
54384;SDS011;40284;52.878;5.998;2023-05-10T10:41:52;8.93;;;6.65;;
54384;SDS011;40284;52.878;5.998;2023-05-10T10:49:26;12.18;;;8.48;;
54384;SDS011;40284;52.878;5.998;2023-05-10T10:54:37;12.88;;;8.25;;
54384;SDS011;40284;52.878;5.998;2023-05-10T10:57:12;14.02;;;8.90;;
54384;SDS011;40284;52.878;5.998;2023-05-10T10:59:42;11.52;;;8.60;;
54384;SDS011;40284;52.878;5.998;2023-05-10T11:04:56;14.65;;;9.70;;
54384;SDS011;40284;52.878;5.998;2023-05-10T11:07:22;15.13;;;10.10;;
54384;SDS011;40284;52.878;5.998;2023-05-10T11:09:48;15.60;;;10.02;;
54384;SDS011;40284;52.878;5.998;2023-05-10T11:12:14;15.40;;;9.63;;
54384;SDS011;40284;52.878;5.998;2023-05-10T11:14:40;15.65;;;10.13;;
54384;SDS011;40284;52.878;5.998;2023-05-10T11:17:22;14.60;;;11.25;;
54384;SDS011;40284;52.878;5.998;2023-05-10T11:20:08;14.50;;;11.20;;
54384;SDS011;40284;52.878;5.998;2023-05-10T11:22:50;15.77;;;11.35;;
54384;SDS011;40284;52.878;5.998;2023-05-10T11:25:17;14.45;;;12.13;;
54384;SDS011;40284;52.878;5.998;2023-05-10T11:27:43;16.83;;;11.43;;
54384;SDS011;40284;52.878;5.998;2023-05-10T11:30:10;13.07;;;9.90;;
54384;SDS011;40284;52.878;5.998;2023-05-10T11:32:40;14.20;;;10.63;;
54384;SDS011;40284;52.878;5.998;2023-05-10T11:35:06;15.63;;;11.50;;
54384;SDS011;40284;52.878;5.998;2023-05-10T11:37:32;12.55;;;10.10;;
54384;SDS011;40284;52.878;5.998;2023-05-10T11:39:59;11.27;;;9.50;;
54384;SDS011;40284;52.878;5.998;2023-05-10T11:42:27;11.82;;;9.13;;
54384;SDS011;40284;52.878;5.998;2023-05-10T11:44:54;11.32;;;9.30;;
54384;SDS011;40284;52.878;5.998;2023-05-10T11:47:20;11.93;;;9.60;;
54384;SDS011;40284;52.878;5.998;2023-05-10T11:49:46;12.57;;;9.52;;
54384;SDS011;40284;52.878;5.998;2023-05-10T11:52:12;11.82;;;10.02;;
54384;SDS011;40284;52.878;5.998;2023-05-10T11:55:11;11.75;;;8.30;;
54384;SDS011;40284;52.878;5.998;2023-05-10T11:57:30;12.00;;;9.55;;
54384;SDS011;40284;52.878;5.998;2023-05-10T11:59:57;11.32;;;9.23;;
54384;SDS011;40284;52.878;5.998;2023-05-10T12:02:23;11.68;;;8.82;;
54384;SDS011;40284;52.878;5.998;2023-05-10T12:04:50;9.90;;;8.90;;
54384;SDS011;40284;52.878;5.998;2023-05-10T12:07:16;12.70;;;8.82;;
54384;SDS011;40284;52.878;5.998;2023-05-10T12:09:43;10.77;;;9.43;;
54384;SDS011;40284;52.878;5.998;2023-05-10T12:12:10;13.27;;;9.75;;
54384;SDS011;40284;52.878;5.998;2023-05-10T12:14:36;13.38;;;9.85;;
54384;SDS011;40284;52.878;5.998;2023-05-10T12:17:02;11.00;;;9.30;;
54384;SDS011;40284;52.878;5.998;2023-05-10T12:19:29;13.70;;;11.07;;
54384;SDS011;40284;52.878;5.998;2023-05-10T12:22:04;13.35;;;10.35;;
54384;SDS011;40284;52.878;5.998;2023-05-10T12:24:30;13.70;;;10.43;;
54384;SDS011;40284;52.878;5.998;2023-05-10T12:26:56;11.75;;;10.55;;
54384;SDS011;40284;52.878;5.998;2023-05-10T12:29:22;13.10;;;11.23;;
54384;SDS011;40284;52.878;5.998;2023-05-10T12:31:55;13.73;;;11.95;;
54384;SDS011;40284;52.878;5.998;2023-05-10T12:36:49;13.38;;;9.90;;
54384;SDS011;40284;52.878;5.998;2023-05-10T12:39:16;14.82;;;9.80;;
54384;SDS011;40284;52.878;5.998;2023-05-10T12:41:42;13.75;;;10.75;;
54384;SDS011;40284;52.878;5.998;2023-05-10T12:44:08;12.77;;;9.35;;
54384;SDS011;40284;52.878;5.998;2023-05-10T12:46:34;10.90;;;9.55;;
54384;SDS011;40284;52.878;5.998;2023-05-10T12:49:00;17.63;;;10.98;;
54384;SDS011;40284;52.878;5.998;2023-05-10T12:51:26;15.30;;;11.63;;
54384;SDS011;40284;52.878;5.998;2023-05-10T12:53:52;13.65;;;10.43;;
54384;SDS011;40284;52.878;5.998;2023-05-10T12:56:19;11.60;;;9.95;;
54384;SDS011;40284;52.878;5.998;2023-05-10T12:58:45;15.57;;;10.88;;
54384;SDS011;40284;52.878;5.998;2023-05-10T13:01:13;11.90;;;9.20;;
54384;SDS011;40284;52.878;5.998;2023-05-10T13:03:39;11.95;;;10.27;;
54384;SDS011;40284;52.878;5.998;2023-05-10T13:06:05;12.73;;;10.57;;
54384;SDS011;40284;52.878;5.998;2023-05-10T13:08:32;11.93;;;9.05;;
54384;SDS011;40284;52.878;5.998;2023-05-10T13:11:01;12.00;;;9.38;;
54384;SDS011;40284;52.878;5.998;2023-05-10T13:13:28;13.35;;;10.35;;
54384;SDS011;40284;52.878;5.998;2023-05-10T13:15:54;11.57;;;9.57;;
54384;SDS011;40284;52.878;5.998;2023-05-10T13:18:20;10.60;;;9.38;;
54384;SDS011;40284;52.878;5.998;2023-05-10T13:20:46;12.00;;;8.68;;
54384;SDS011;40284;52.878;5.998;2023-05-10T13:23:14;10.48;;;8.23;;
54384;SDS011;40284;52.878;5.998;2023-05-10T13:25:40;9.30;;;6.72;;
54384;SDS011;40284;52.878;5.998;2023-05-10T13:28:06;9.55;;;7.18;;
54384;SDS011;40284;52.878;5.998;2023-05-10T13:30:32;8.93;;;6.60;;
54384;SDS011;40284;52.878;5.998;2023-05-10T13:32:58;7.25;;;5.60;;
54384;SDS011;40284;52.878;5.998;2023-05-10T13:35:24;6.45;;;4.75;;
54384;SDS011;40284;52.878;5.998;2023-05-10T13:37:50;7.30;;;5.20;;
54384;SDS011;40284;52.878;5.998;2023-05-10T13:40:18;7.32;;;5.65;;
54384;SDS011;40284;52.878;5.998;2023-05-10T13:42:44;7.40;;;5.13;;
54384;SDS011;40284;52.878;5.998;2023-05-10T13:45:11;6.35;;;5.28;;
54384;SDS011;40284;52.878;5.998;2023-05-10T13:47:38;4.78;;;4.15;;
54384;SDS011;40284;52.878;5.998;2023-05-10T13:50:04;6.65;;;5.00;;
54384;SDS011;40284;52.878;5.998;2023-05-10T13:52:30;5.93;;;4.47;;
54384;SDS011;40284;52.878;5.998;2023-05-10T13:54:56;5.68;;;4.20;;
54384;SDS011;40284;52.878;5.998;2023-05-10T13:57:22;6.72;;;4.78;;
54384;SDS011;40284;52.878;5.998;2023-05-10T13:59:49;5.60;;;4.57;;
54384;SDS011;40284;52.878;5.998;2023-05-10T14:02:15;8.35;;;4.97;;
54384;SDS011;40284;52.878;5.998;2023-05-10T14:04:41;5.50;;;4.40;;
54384;SDS011;40284;52.878;5.998;2023-05-10T14:07:07;5.25;;;3.85;;
54384;SDS011;40284;52.878;5.998;2023-05-10T14:09:33;5.00;;;4.20;;
54384;SDS011;40284;52.878;5.998;2023-05-10T14:11:59;4.70;;;3.90;;
54384;SDS011;40284;52.878;5.998;2023-05-10T14:14:25;3.80;;;3.40;;
54384;SDS011;40284;52.878;5.998;2023-05-10T14:16:53;4.68;;;3.90;;
54384;SDS011;40284;52.878;5.998;2023-05-10T14:19:19;5.45;;;3.42;;
54384;SDS011;40284;52.878;5.998;2023-05-10T14:21:45;3.70;;;2.63;;
54384;SDS011;40284;52.878;5.998;2023-05-10T14:24:11;3.70;;;2.65;;
54384;SDS011;40284;52.878;5.998;2023-05-10T14:26:37;8.35;;;2.67;;
54384;SDS011;40284;52.878;5.998;2023-05-10T14:29:03;4.30;;;2.70;;
54384;SDS011;40284;52.878;5.998;2023-05-10T14:31:29;5.53;;;3.85;;
54384;SDS011;40284;52.878;5.998;2023-05-10T14:33:55;4.65;;;3.10;;
54384;SDS011;40284;52.878;5.998;2023-05-10T14:36:22;3.90;;;2.75;;
54384;SDS011;40284;52.878;5.998;2023-05-10T14:38:48;4.40;;;3.53;;
54384;SDS011;40284;52.878;5.998;2023-05-10T14:41:15;5.40;;;3.72;;
54384;SDS011;40284;52.878;5.998;2023-05-10T14:43:42;4.63;;;3.25;;
54384;SDS011;40284;52.878;5.998;2023-05-10T14:46:08;6.35;;;3.10;;
54384;SDS011;40284;52.878;5.998;2023-05-10T14:48:35;5.03;;;3.10;;
54384;SDS011;40284;52.878;5.998;2023-05-10T14:51:01;4.90;;;3.72;;
54384;SDS011;40284;52.878;5.998;2023-05-10T14:53:28;3.83;;;3.00;;
54384;SDS011;40284;52.878;5.998;2023-05-10T14:55:54;4.50;;;2.63;;
54384;SDS011;40284;52.878;5.998;2023-05-10T14:58:20;4.25;;;3.20;;
54384;SDS011;40284;52.878;5.998;2023-05-10T15:00:46;5.05;;;3.13;;
54384;SDS011;40284;52.878;5.998;2023-05-10T15:03:12;5.20;;;3.55;;
54384;SDS011;40284;52.878;5.998;2023-05-10T15:05:38;6.65;;;3.75;;
54384;SDS011;40284;52.878;5.998;2023-05-10T15:08:05;6.35;;;3.67;;
54384;SDS011;40284;52.878;5.998;2023-05-10T15:10:31;5.18;;;4.35;;